Time;durP1;ratioP1;P1;durP2;ratioP2;P2;SDS_P1;SDS_P2;PMS_P1;PMS_P2;Temp;Humidity;BMP_temperature;BMP_pressure;BME280_temperature;BME280_humidity;BME280_pressure;Samples;Min_cycle;Max_cycle;Signal;HPM_P1;HPM_P2
2023/12/26 00:01:48;;;;;;;6.88;2.50;;;5.10;60.40;;;;;;5032743;28;20279;-83
2023/12/26 00:04:16;;;;;;;5.53;2.60;;;5.10;60.70;;;;;;5032529;28;20203;-85
2023/12/26 00:06:44;;;;;;;5.57;2.92;;;5.20;61.30;;;;;;5032253;28;20650;-84
2023/12/26 00:09:11;;;;;;;5.43;3.08;;;5.10;60.90;;;;;;5032687;28;20554;-80
2023/12/26 00:11:42;;;;;;;6.50;3.22;;;5.00;60.40;;;;;;5032645;28;20282;-84
2023/12/26 00:14:11;;;;;;;6.93;3.25;;;5.00;60.10;;;;;;5032424;28;20207;-83
2023/12/26 00:16:41;;;;;;;7.35;4.18;;;4.90;59.80;;;;;;5032544;28;20273;-82
2023/12/26 00:19:08;;;;;;;6.32;3.70;;;4.80;60.00;;;;;;5033044;28;20199;-83
2023/12/26 00:21:34;;;;;;;6.70;2.80;;;4.80;60.60;;;;;;5032484;28;20207;-88
2023/12/26 00:24:02;;;;;;;6.90;3.58;;;4.80;61.20;;;;;;5032293;28;20286;-85
2023/12/26 00:26:29;;;;;;;7.13;3.90;;;4.80;61.70;;;;;;5032583;28;20265;-90
2023/12/26 00:28:56;;;;;;;7.47;3.08;;;4.70;61.50;;;;;;5032329;28;20202;-90
2023/12/26 00:31:25;;;;;;;4.28;2.83;;;4.70;62.00;;;;;;5032255;28;20584;-87
2023/12/26 00:33:53;;;;;;;5.18;3.17;;;4.70;62.00;;;;;;5032463;28;20685;-87
2023/12/26 00:36:20;;;;;;;8.13;2.95;;;4.70;61.90;;;;;;5032406;28;20278;-87
2023/12/26 00:38:48;;;;;;;4.45;2.67;;;4.60;62.90;;;;;;5032009;28;20233;-83
2023/12/26 00:41:15;;;;;;;3.70;2.95;;;4.50;62.60;;;;;;5032053;28;20184;-84
2023/12/26 00:43:42;;;;;;;3.78;2.05;;;4.60;62.40;;;;;;5032304;28;20195;-84
2023/12/26 00:46:09;;;;;;;4.70;2.47;;;4.60;62.50;;;;;;5031413;28;20191;-84
2023/12/26 00:48:38;;;;;;;4.75;2.35;;;4.50;62.00;;;;;;5032681;28;20585;-84
2023/12/26 00:51:05;;;;;;;4.35;2.10;;;4.60;62.70;;;;;;5032747;28;20245;-84
2023/12/26 00:53:32;;;;;;;3.63;2.00;;;4.60;63.30;;;;;;5032227;28;20204;-83
2023/12/26 00:55:59;;;;;;;3.30;1.80;;;4.50;63.90;;;;;;5032499;28;20283;-82
2023/12/26 00:58:26;;;;;;;5.30;2.50;;;4.50;63.20;;;;;;5036026;28;20620;-86
2023/12/26 01:00:53;;;;;;;3.10;2.25;;;4.40;63.60;;;;;;5036173;28;20349;-84
2023/12/26 01:03:22;;;;;;;4.70;2.33;;;4.50;64.10;;;;;;5035772;28;20633;-83
2023/12/26 01:05:50;;;;;;;5.65;2.92;;;4.40;62.90;;;;;;5035660;28;20234;-83
2023/12/26 01:08:18;;;;;;;5.97;2.50;;;4.40;63.10;;;;;;5035813;28;20203;-83
2023/12/26 01:10:45;;;;;;;3.92;2.50;;;4.40;63.80;;;;;;5035852;28;20302;-83
2023/12/26 01:13:12;;;;;;;5.53;2.58;;;4.40;64.00;;;;;;5035700;28;20191;-83
2023/12/26 01:15:40;;;;;;;6.32;3.20;;;4.40;63.90;;;;;;5035928;28;20633;-83
2023/12/26 01:18:08;;;;;;;6.97;2.30;;;4.40;63.80;;;;;;5035602;28;20664;-83
2023/12/26 01:20:35;;;;;;;3.30;1.75;;;4.40;63.80;;;;;;5035418;28;20199;-82
2023/12/26 01:23:04;;;;;;;5.40;2.70;;;4.40;63.70;;;;;;5035374;28;20287;-83
2023/12/26 01:25:31;;;;;;;4.88;2.60;;;4.40;63.50;;;;;;5035708;28;20302;-83
2023/12/26 01:27:58;;;;;;;4.60;2.15;;;4.40;63.30;;;;;;5035366;28;20203;-81
2023/12/26 01:30:25;;;;;;;3.80;2.03;;;4.30;63.20;;;;;;5035302;28;20653;-83
2023/12/26 01:32:52;;;;;;;5.00;1.90;;;4.30;63.00;;;;;;5035509;28;20219;-84
2023/12/26 01:35:19;;;;;;;3.08;1.70;;;4.30;63.90;;;;;;5035366;28;20298;-84
2023/12/26 01:37:46;;;;;;;3.50;1.60;;;4.20;64.00;;;;;;5035172;28;20231;-83
2023/12/26 01:40:14;;;;;;;3.85;1.70;;;4.30;64.10;;;;;;5035503;28;20191;-84
2023/12/26 01:42:45;;;;;;;5.97;2.50;;;4.30;63.80;;;;;;5035219;28;20286;-83
2023/12/26 01:45:12;;;;;;;3.60;2.20;;;4.30;63.90;;;;;;5035305;28;20211;-83
2023/12/26 01:47:39;;;;;;;5.00;2.25;;;4.30;63.80;;;;;;5035268;28;20310;-85
2023/12/26 01:50:09;;;;;;;3.17;1.80;;;4.30;64.10;;;;;;5035325;28;20246;-82
2023/12/26 01:52:39;;;;;;;4.90;2.20;;;4.40;64.30;;;;;;5035157;28;20227;-84
2023/12/26 01:55:07;;;;;;;2.88;1.60;;;4.40;64.00;;;;;;5035334;28;20209;-84
2023/12/26 01:57:39;;;;;;;3.53;1.75;;;4.50;63.80;;;;;;5035053;28;20553;-84
2023/12/26 02:00:08;;;;;;;4.45;1.90;;;4.60;63.20;;;;;;5035419;28;20507;-85
2023/12/26 02:02:35;;;;;;;3.30;1.85;;;4.70;62.40;;;;;;5035069;28;20223;-84
2023/12/26 02:05:02;;;;;;;3.05;1.75;;;4.70;61.80;;;;;;5034971;28;20235;-85
2023/12/26 02:07:29;;;;;;;3.90;1.60;;;4.80;62.10;;;;;;5034378;28;20191;-84
2023/12/26 02:09:56;;;;;;;2.65;1.35;;;4.80;61.50;;;;;;5034461;28;20650;-84
2023/12/26 02:12:23;;;;;;;4.10;1.45;;;5.00;61.10;;;;;;5034821;28;20218;-84
2023/12/26 02:14:52;;;;;;;3.33;1.60;;;5.10;60.80;;;;;;5034347;28;20223;-84
2023/12/26 02:17:22;;;;;;;3.75;1.92;;;5.40;59.50;;;;;;5034538;28;20188;-85
2023/12/26 02:19:50;;;;;;;2.72;1.23;;;5.40;58.90;;;;;;5034405;28;20184;-85
2023/12/26 02:22:17;;;;;;;2.47;1.20;;;5.50;58.90;;;;;;5034227;28;20282;-84
2023/12/26 02:24:47;;;;;;;2.85;1.23;;;5.60;58.90;;;;;;5034605;28;20231;-84
2023/12/26 02:27:17;;;;;;;2.65;1.30;;;5.70;58.40;;;;;;5034178;28;20175;-84
2023/12/26 02:29:45;;;;;;;3.22;1.33;;;5.80;58.20;;;;;;5034587;28;20242;-83
2023/12/26 02:32:14;;;;;;;3.92;1.70;;;5.90;57.80;;;;;;5034415;28;20226;-84
2023/12/26 02:34:41;;;;;;;2.55;1.17;;;6.00;57.40;;;;;;5034286;28;20328;-84
2023/12/26 02:37:09;;;;;;;2.72;1.10;;;6.20;57.10;;;;;;5034560;28;20294;-84
2023/12/26 02:39:36;;;;;;;2.95;1.40;;;6.30;56.90;;;;;;5034248;28;20195;-83
2023/12/26 02:42:04;;;;;;;2.60;1.30;;;6.50;56.50;;;;;;5034282;28;20227;-84
2023/12/26 02:44:31;;;;;;;2.72;1.17;;;6.70;55.80;;;;;;5034088;28;20260;-83
2023/12/26 02:46:58;;;;;;;3.15;1.33;;;6.90;55.20;;;;;;5034019;28;20310;-84
2023/12/26 02:49:25;;;;;;;2.85;1.20;;;7.00;55.20;;;;;;5034003;28;20303;-83
2023/12/26 02:51:52;;;;;;;2.20;0.90;;;7.10;54.90;;;;;;5034104;28;20230;-83
2023/12/26 02:54:19;;;;;;;2.53;1.08;;;7.20;54.40;;;;;;5033882;28;20231;-83
2023/12/26 02:56:46;;;;;;;2.45;1.20;;;7.30;54.20;;;;;;5033964;28;20278;-83
2023/12/26 02:59:14;;;;;;;2.65;1.30;;;7.40;54.00;;;;;;5033505;28;20242;-84
2023/12/26 03:01:44;;;;;;;2.28;1.05;;;7.40;53.70;;;;;;5033851;28;20187;-83
2023/12/26 03:04:11;;;;;;;4.20;1.33;;;7.40;53.50;;;;;;5033877;28;20241;-83
2023/12/26 03:06:37;;;;;;;2.50;1.40;;;7.50;53.60;;;;;;5033524;28;20282;-82
2023/12/26 03:09:05;;;;;;;4.28;1.52;;;7.50;53.60;;;;;;5033675;28;20187;-83
2023/12/26 03:11:32;;;;;;;2.17;0.80;;;7.50;53.70;;;;;;5033714;28;20248;-83
2023/12/26 03:13:59;;;;;;;2.40;1.10;;;7.40;53.60;;;;;;5033776;28;20609;-83
2023/12/26 03:16:28;;;;;;;2.30;1.17;;;7.40;53.50;;;;;;5033548;28;20305;-83
2023/12/26 03:18:55;;;;;;;3.00;1.15;;;7.40;53.60;;;;;;5032937;28;20234;-83
2023/12/26 03:21:21;;;;;;;2.67;1.20;;;7.50;53.10;;;;;;5033493;28;20313;-83
2023/12/26 03:23:48;;;;;;;2.65;1.08;;;7.50;53.00;;;;;;5033209;28;20282;-83
2023/12/26 03:26:15;;;;;;;2.35;0.93;;;7.40;53.30;;;;;;5033505;28;20286;-84
2023/12/26 03:28:42;;;;;;;2.90;1.10;;;7.40;53.80;;;;;;5033440;28;20235;-85
2023/12/26 03:31:09;;;;;;;2.83;1.40;;;7.40;53.30;;;;;;5033385;28;20198;-84
2023/12/26 03:33:38;;;;;;;2.45;1.13;;;7.30;53.40;;;;;;5033419;28;20294;-85
2023/12/26 03:36:07;;;;;;;2.20;1.10;;;7.40;53.50;;;;;;5033296;28;20288;-85
2023/12/26 03:38:34;;;;;;;2.33;1.10;;;7.30;53.50;;;;;;5033578;28;20199;-84
2023/12/26 03:41:01;;;;;;;2.15;0.85;;;7.40;53.40;;;;;;5032934;28;20195;-85
2023/12/26 03:43:28;;;;;;;2.70;1.13;;;7.40;53.40;;;;;;5033223;28;20610;-84
2023/12/26 03:45:55;;;;;;;2.30;1.13;;;7.40;53.60;;;;;;5033199;28;20265;-85
2023/12/26 03:48:22;;;;;;;2.55;1.30;;;7.40;53.60;;;;;;5033332;28;20310;-84
2023/12/26 03:50:50;;;;;;;2.75;1.30;;;7.40;53.40;;;;;;5033166;28;20280;-85
2023/12/26 03:53:17;;;;;;;2.38;1.10;;;7.40;53.60;;;;;;5033231;28;20576;-84
2023/12/26 03:55:46;;;;;;;2.10;1.08;;;7.40;53.60;;;;;;5033121;28;20274;-85
2023/12/26 03:58:13;;;;;;;2.67;1.20;;;7.40;53.40;;;;;;5033074;28;20191;-85
2023/12/26 04:00:40;;;;;;;2.33;1.05;;;7.40;53.40;;;;;;5033189;28;20227;-85
2023/12/26 04:03:07;;;;;;;2.47;1.55;;;7.30;53.70;;;;;;5032772;28;20245;-84
2023/12/26 04:05:34;;;;;;;2.13;1.05;;;7.30;53.80;;;;;;5033032;28;20623;-84
2023/12/26 04:08:03;;;;;;;3.45;1.40;;;7.30;53.80;;;;;;5032809;28;20738;-84
2023/12/26 04:10:30;;;;;;;2.30;1.10;;;7.30;53.90;;;;;;5033017;28;20609;-85
2023/12/26 04:12:57;;;;;;;3.45;1.60;;;7.40;53.80;;;;;;5033017;28;20192;-85
2023/12/26 04:15:25;;;;;;;2.20;1.00;;;7.30;53.90;;;;;;5032601;28;20253;-84
2023/12/26 04:17:51;;;;;;;3.47;1.30;;;7.30;54.00;;;;;;5032914;28;20191;-84
2023/12/26 04:20:18;;;;;;;3.97;1.30;;;7.40;53.80;;;;;;5033015;28;20249;-85
2023/12/26 04:22:45;;;;;;;3.05;1.13;;;7.50;53.30;;;;;;5032581;28;20187;-84
2023/12/26 04:25:14;;;;;;;2.72;1.30;;;7.50;53.10;;;;;;5032940;28;20632;-85
2023/12/26 04:27:41;;;;;;;1.80;0.80;;;7.50;53.00;;;;;;5032967;28;20196;-85
2023/12/26 04:30:08;;;;;;;2.78;1.38;;;7.50;52.90;;;;;;5032615;28;20187;-84
2023/12/26 04:32:36;;;;;;;2.25;1.08;;;7.50;52.70;;;;;;5035738;28;20223;-84
2023/12/26 04:35:02;;;;;;;2.45;1.20;;;7.50;52.40;;;;;;5036830;28;20269;-82
2023/12/26 04:37:34;;;;;;;1.98;1.05;;;7.50;52.20;;;;;;5036619;28;20195;-83
2023/12/26 04:40:01;;;;;;;2.05;1.05;;;7.70;51.50;;;;;;5036470;28;20219;-83
2023/12/26 04:42:30;;;;;;;4.25;1.50;;;7.70;51.70;;;;;;5036266;28;20544;-83
2023/12/26 04:44:57;;;;;;;2.45;1.20;;;7.70;51.80;;;;;;5036143;28;20223;-82
2023/12/26 04:47:24;;;;;;;2.03;0.90;;;7.80;51.40;;;;;;5035921;28;20369;-83
2023/12/26 04:49:51;;;;;;;2.20;0.90;;;7.80;50.90;;;;;;5036521;28;20546;-85
2023/12/26 04:52:18;;;;;;;3.55;1.15;;;7.80;51.10;;;;;;5036619;28;20278;-84
2023/12/26 04:54:45;;;;;;;2.75;1.02;;;7.70;51.00;;;;;;5036230;28;20192;-86
2023/12/26 04:57:12;;;;;;;1.88;0.80;;;7.80;51.10;;;;;;5036243;28;20282;-84
2023/12/26 04:59:41;;;;;;;2.35;1.05;;;7.80;51.10;;;;;;5036153;28;20300;-84
2023/12/26 05:02:07;;;;;;;2.13;1.08;;;7.70;51.30;;;;;;5035891;28;20234;-86
2023/12/26 05:04:34;;;;;;;2.67;0.80;;;7.70;51.70;;;;;;5036273;28;20612;-86
2023/12/26 05:07:02;;;;;;;2.40;1.10;;;7.70;52.00;;;;;;5036188;28;20195;-86
2023/12/26 05:09:29;;;;;;;2.00;0.80;;;7.70;52.00;;;;;;5035864;28;20198;-86
2023/12/26 05:11:56;;;;;;;2.45;1.30;;;7.70;51.90;;;;;;5035774;28;20283;-86
2023/12/26 05:14:23;;;;;;;2.00;0.93;;;7.70;51.90;;;;;;5036015;28;20231;-84
2023/12/26 05:16:51;;;;;;;2.85;1.10;;;7.70;52.10;;;;;;5035909;28;20306;-83
2023/12/26 05:19:18;;;;;;;2.55;1.02;;;7.80;52.00;;;;;;5035900;28;20196;-83
2023/12/26 05:21:45;;;;;;;2.25;1.00;;;7.70;51.60;;;;;;5035913;28;20614;-83
2023/12/26 05:24:12;;;;;;;2.45;1.05;;;7.80;51.70;;;;;;5035946;28;20279;-84
2023/12/26 05:26:40;;;;;;;2.22;1.02;;;7.70;51.50;;;;;;5035496;28;20753;-83
2023/12/26 05:29:07;;;;;;;2.60;0.90;;;7.80;51.30;;;;;;5035789;28;20568;-83
2023/12/26 05:31:35;;;;;;;2.25;1.00;;;7.80;51.20;;;;;;5035411;28;20287;-83
2023/12/26 05:34:05;;;;;;;3.28;1.10;;;7.80;51.00;;;;;;5035650;28;20241;-83
2023/12/26 05:36:32;;;;;;;2.40;1.13;;;7.90;50.30;;;;;;5035763;28;20296;-83
2023/12/26 05:38:59;;;;;;;2.10;1.00;;;7.90;50.40;;;;;;5035590;28;20278;-84
2023/12/26 05:41:26;;;;;;;2.20;0.73;;;7.90;50.20;;;;;;5035315;28;20214;-83
2023/12/26 05:43:53;;;;;;;1.95;0.82;;;7.90;49.30;;;;;;5034711;28;20388;-83
2023/12/26 05:46:22;;;;;;;2.10;0.80;;;8.00;49.00;;;;;;5035133;28;20239;-82
2023/12/26 05:48:49;;;;;;;2.30;1.15;;;8.10;47.70;;;;;;5035918;28;20195;-83
2023/12/26 05:51:17;;;;;;;2.03;0.95;;;8.20;47.00;;;;;;5035114;28;20703;-85
2023/12/26 05:53:44;;;;;;;2.40;1.10;;;8.40;45.80;;;;;;5035136;28;20286;-85
2023/12/26 05:56:11;;;;;;;2.25;1.05;;;8.40;46.10;;;;;;5034882;28;20756;-85
2023/12/26 05:58:39;;;;;;;2.08;0.90;;;8.50;45.90;;;;;;5034830;28;20278;-85
2023/12/26 06:01:10;;;;;;;3.58;2.30;;;8.50;45.80;;;;;;5035056;28;20261;-85
2023/12/26 06:03:37;;;;;;;3.35;1.60;;;8.50;46.20;;;;;;5035171;28;20176;-84
2023/12/26 06:06:04;;;;;;;2.42;1.38;;;8.50;46.10;;;;;;5034763;28;20286;-85
2023/12/26 06:08:33;;;;;;;2.88;1.58;;;8.60;45.70;;;;;;5034722;28;20650;-85
2023/12/26 06:10:59;;;;;;;2.55;1.00;;;8.60;45.40;;;;;;5034994;28;20283;-86
2023/12/26 06:13:27;;;;;;;2.47;1.17;;;8.70;43.20;;;;;;5035092;28;20223;-85
2023/12/26 06:15:54;;;;;;;2.30;1.10;;;8.80;42.80;;;;;;5034800;28;20219;-85
2023/12/26 06:18:21;;;;;;;2.38;0.90;;;8.90;41.10;;;;;;5034884;28;20290;-86
2023/12/26 06:20:48;;;;;;;2.30;1.10;;;9.00;41.10;;;;;;5034465;28;20282;-86
2023/12/26 06:23:15;;;;;;;3.80;1.25;;;9.10;40.60;;;;;;5034849;28;20566;-85
2023/12/26 06:25:44;;;;;;;9.93;3.67;;;9.10;40.20;;;;;;5034753;28;20299;-84
2023/12/26 06:28:11;;;;;;;4.15;1.38;;;9.20;40.00;;;;;;5031314;28;20190;-85
2023/12/26 06:30:38;;;;;;;2.65;1.10;;;9.20;39.70;;;;;;5033620;28;20215;-86
2023/12/26 06:33:05;;;;;;;2.55;1.13;;;9.30;40.10;;;;;;5033386;28;20270;-85
2023/12/26 06:35:32;;;;;;;2.92;1.52;;;9.30;40.10;;;;;;5033596;28;20258;-87
2023/12/26 06:37:59;;;;;;;2.63;1.48;;;9.40;39.60;;;;;;5033957;28;20294;-86
2023/12/26 06:40:26;;;;;;;2.20;1.08;;;9.40;39.90;;;;;;5033852;28;20248;-86
2023/12/26 06:42:54;;;;;;;3.45;1.35;;;9.40;40.00;;;;;;5033451;28;20266;-86
2023/12/26 06:45:21;;;;;;;3.45;1.83;;;9.40;40.30;;;;;;5033786;28;20602;-87
2023/12/26 06:47:48;;;;;;;2.83;1.67;;;9.40;40.10;;;;;;5033296;28;20273;-87
2023/12/26 06:50:15;;;;;;;3.55;1.30;;;9.30;40.10;;;;;;5033775;28;20196;-86
2023/12/26 06:52:42;;;;;;;2.42;1.25;;;9.30;39.10;;;;;;5033665;28;20309;-87
2023/12/26 06:55:09;;;;;;;6.90;2.03;;;9.30;38.60;;;;;;5032249;28;20226;-88
2023/12/26 06:57:36;;;;;;;2.15;1.00;;;9.30;38.30;;;;;;5033034;28;20211;-87
2023/12/26 07:00:05;;;;;;;2.78;1.17;;;9.40;38.20;;;;;;5033255;28;20250;-87
2023/12/26 07:02:34;;;;;;;2.75;1.42;;;9.40;37.90;;;;;;5033382;28;20192;-84
2023/12/26 07:05:01;;;;;;;2.10;0.82;;;9.50;37.80;;;;;;5032776;28;20188;-85
2023/12/26 07:07:28;;;;;;;3.67;1.85;;;9.50;38.10;;;;;;5033504;28;20298;-84
2023/12/26 07:09:55;;;;;;;3.70;1.33;;;9.50;38.40;;;;;;5033203;28;20282;-84
2023/12/26 07:12:22;;;;;;;2.20;1.10;;;9.50;38.40;;;;;;5032092;28;20266;-84
2023/12/26 07:14:48;;;;;;;3.92;1.05;;;9.50;38.10;;;;;;5022956;28;20218;-85
2023/12/26 07:17:16;;;;;;;3.47;1.27;;;9.50;38.00;;;;;;5027521;28;20355;-86
2023/12/26 07:19:43;;;;;;;2.75;1.33;;;9.50;38.30;;;;;;5028219;28;20222;-84
2023/12/26 07:22:10;;;;;;;3.55;2.00;;;9.50;38.30;;;;;;5032484;28;20270;-83
2023/12/26 07:24:37;;;;;;;3.70;1.58;;;9.50;38.00;;;;;;5032522;28;20284;-83
2023/12/26 07:27:04;;;;;;;3.80;1.85;;;9.50;38.00;;;;;;5032552;28;20199;-84
2023/12/26 07:29:31;;;;;;;3.65;1.60;;;9.50;38.10;;;;;;5032701;28;20287;-82
2023/12/26 07:31:57;;;;;;;3.85;0.90;;;9.50;38.40;;;;;;5032499;28;20277;-85
2023/12/26 07:34:26;;;;;;;2.80;1.40;;;9.50;38.60;;;;;;5032779;28;20282;-90
2023/12/26 07:36:53;;;;;;;4.28;1.33;;;9.50;39.00;;;;;;5001684;28;20212;-86
2023/12/26 07:39:20;;;;;;;4.20;2.70;;;9.50;39.10;;;;;;5032201;28;20191;-87
2023/12/26 07:41:47;;;;;;;2.60;1.40;;;9.60;39.20;;;;;;5031387;28;20250;-84
2023/12/26 07:44:13;;;;;;;2.47;1.05;;;9.60;39.50;;;;;;5031724;28;20287;-83
2023/12/26 07:46:40;;;;;;;2.40;1.20;;;9.70;39.60;;;;;;5031644;28;20609;-83
2023/12/26 07:49:07;;;;;;;3.85;1.52;;;9.70;39.50;;;;;;5030567;28;20195;-84
2023/12/26 07:51:36;;;;;;;3.05;1.40;;;9.80;39.70;;;;;;5029781;28;20230;-84
2023/12/26 07:54:04;;;;;;;2.38;1.10;;;9.90;39.50;;;;;;5031958;28;20195;-85
2023/12/26 07:56:30;;;;;;;3.28;1.50;;;9.90;39.70;;;;;;5032405;28;20227;-84
2023/12/26 07:58:57;;;;;;;5.75;1.45;;;10.00;39.00;;;;;;5032025;28;20705;-83
2023/12/26 08:01:26;;;;;;;4.07;1.55;;;10.10;38.70;;;;;;5031491;28;20245;-83
2023/12/26 08:03:53;;;;;;;5.20;1.50;;;10.10;38.50;;;;;;5031995;28;20199;-84
2023/12/26 08:06:21;;;;;;;2.20;1.25;;;10.20;38.50;;;;;;5034758;28;20620;-83
2023/12/26 08:08:49;;;;;;;2.53;1.38;;;10.30;38.40;;;;;;5035378;28;20278;-83
2023/12/26 08:11:16;;;;;;;2.47;1.10;;;10.40;38.60;;;;;;5034140;28;20279;-82
2023/12/26 08:13:44;;;;;;;3.22;1.50;;;10.50;38.50;;;;;;5036366;28;20222;-82
2023/12/26 08:16:10;;;;;;;19.25;4.38;;;10.60;39.10;;;;;;5036278;28;20560;-83
2023/12/26 08:18:37;;;;;;;2.95;1.42;;;10.70;38.50;;;;;;5034980;28;20214;-82
2023/12/26 08:21:04;;;;;;;2.20;1.00;;;10.80;38.40;;;;;;5036195;28;20525;-82
2023/12/26 08:23:31;;;;;;;2.75;1.60;;;10.90;38.20;;;;;;5035750;28;20277;-82
2023/12/26 08:26:00;;;;;;;3.83;1.30;;;11.00;38.30;;;;;;5034993;28;20195;-82
2023/12/26 08:28:27;;;;;;;3.42;1.38;;;11.10;38.90;;;;;;5035254;28;20267;-80
2023/12/26 08:30:54;;;;;;;2.60;1.40;;;11.20;38.50;;;;;;5035134;28;20350;-84
2023/12/26 08:33:21;;;;;;;3.25;1.40;;;11.30;38.20;;;;;;5033961;28;20691;-84
2023/12/26 08:35:48;;;;;;;3.80;1.55;;;11.40;38.10;;;;;;5035612;28;20199;-84
2023/12/26 08:38:16;;;;;;;3.55;1.45;;;11.50;37.90;;;;;;5036734;28;20191;-87
2023/12/26 08:40:43;;;;;;;3.35;1.50;;;11.60;37.70;;;;;;5036492;28;20264;-84
2023/12/26 08:43:11;;;;;;;2.95;1.50;;;11.80;37.40;;;;;;5035398;28;20218;-84
2023/12/26 08:45:38;;;;;;;3.05;1.58;;;12.10;37.40;;;;;;5036137;28;20282;-83
2023/12/26 08:48:06;;;;;;;3.73;1.47;;;12.40;36.90;;;;;;5036399;28;20283;-85
2023/12/26 08:50:33;;;;;;;4.07;1.47;;;12.50;36.40;;;;;;5035933;28;20520;-84
2023/12/26 08:53:00;;;;;;;5.20;2.20;;;12.70;35.90;;;;;;5036003;28;20502;-85
2023/12/26 08:55:27;;;;;;;4.20;1.50;;;12.90;35.50;;;;;;5036275;28;20452;-85
2023/12/26 08:57:54;;;;;;;3.70;1.30;;;13.30;35.20;;;;;;5035756;28;20501;-85
2023/12/26 09:00:23;;;;;;;2.50;1.37;;;13.50;34.90;;;;;;5035720;28;20472;-84
2023/12/26 09:02:49;;;;;;;2.73;1.50;;;13.70;34.90;;;;;;5035728;28;20780;-84
2023/12/26 09:05:17;;;;;;;2.30;1.07;;;13.70;34.70;;;;;;5035715;28;20434;-84
2023/12/26 09:07:43;;;;;;;3.13;1.50;;;13.70;34.80;;;;;;5036172;28;20508;-84
2023/12/26 09:10:11;;;;;;;3.33;1.60;;;13.70;34.90;;;;;;5036021;28;20517;-85
2023/12/26 09:12:38;;;;;;;3.10;1.60;;;13.80;34.90;;;;;;5035604;28;20900;-84
2023/12/26 09:15:05;;;;;;;3.10;1.33;;;14.00;34.80;;;;;;5035894;28;20488;-85
2023/12/26 09:17:36;;;;;;;2.50;1.43;;;14.10;34.70;;;;;;5034808;28;20465;-84
2023/12/26 09:20:03;;;;;;;3.30;1.80;;;14.50;34.70;;;;;;5035908;28;20433;-84
2023/12/26 09:22:30;;;;;;;3.73;1.50;;;15.10;34.60;;;;;;5035693;28;20434;-84
2023/12/26 09:24:57;;;;;;;3.47;1.60;;;15.90;34.40;;;;;;5035296;28;20533;-84
2023/12/26 09:27:24;;;;;;;2.47;1.60;;;16.60;32.90;;;;;;5035289;28;20473;-84
2023/12/26 09:29:51;;;;;;;5.07;1.57;;;17.20;31.90;;;;;;5035697;28;20856;-83
2023/12/26 09:32:18;;;;;;;5.20;1.73;;;17.80;30.30;;;;;;5035194;28;20867;-84
2023/12/26 09:34:46;;;;;;;2.37;1.00;;;18.20;29.70;;;;;;5035198;28;20480;-84
2023/12/26 09:37:13;;;;;;;19.20;4.00;;;18.50;28.50;;;;;;5035377;28;20605;-84
2023/12/26 09:39:40;;;;;;;2.50;1.50;;;18.30;28.00;;;;;;5034971;28;20483;-84
2023/12/26 09:42:11;;;;;;;3.40;1.60;;;18.40;28.60;;;;;;5034976;28;20479;-85
2023/12/26 09:44:39;;;;;;;2.77;1.50;;;19.00;28.40;;;;;;5035257;28;20432;-85
2023/12/26 09:47:07;;;;;;;2.67;1.30;;;19.60;27.70;;;;;;5035273;28;20503;-84
2023/12/26 09:49:34;;;;;;;3.20;1.33;;;20.00;27.10;;;;;;5035625;28;20821;-85
2023/12/26 09:52:05;;;;;;;2.90;1.27;;;20.10;26.00;;;;;;5035151;28;20442;-85
2023/12/26 09:54:33;;;;;;;4.70;1.37;;;19.90;25.80;;;;;;5034913;28;20515;-84
2023/12/26 09:57:01;;;;;;;2.40;1.00;;;19.60;26.00;;;;;;5034630;28;20559;-84
2023/12/26 09:59:28;;;;;;;3.10;1.33;;;19.60;26.00;;;;;;5035113;28;20441;-84
2023/12/26 10:01:55;;;;;;;3.07;1.40;;;19.70;25.90;;;;;;5035063;28;20521;-83
2023/12/26 10:04:22;;;;;;;2.93;1.10;;;19.80;26.00;;;;;;5035116;28;20429;-84
2023/12/26 10:06:51;;;;;;;2.80;1.30;;;19.70;25.90;;;;;;5034555;28;20529;-84
2023/12/26 10:09:20;;;;;;;3.40;1.47;;;20.00;25.80;;;;;;5035031;28;20480;-84
2023/12/26 10:11:47;;;;;;;3.83;1.50;;;20.10;25.30;;;;;;5035088;28;20528;-83
2023/12/26 10:14:27;;;;;;;3.20;2.10;;;19.80;25.00;;;;;;5035293;28;20461;-84
2023/12/26 10:16:55;;;;;;;3.20;1.10;;;19.60;25.10;;;;;;5035276;28;20467;-84
2023/12/26 10:19:22;;;;;;;2.53;1.10;;;19.40;24.60;;;;;;5034925;28;20457;-84
2023/12/26 10:21:50;;;;;;;2.73;1.20;;;19.40;24.90;;;;;;5034825;28;20517;-84
2023/12/26 10:24:19;;;;;;;6.07;1.83;;;19.20;24.50;;;;;;5034686;28;20914;-85
2023/12/26 10:26:46;;;;;;;2.90;1.40;;;19.30;25.10;;;;;;5034725;28;20495;-84
2023/12/26 10:29:13;;;;;;;3.30;1.00;;;19.60;25.10;;;;;;5033622;28;20529;-84
2023/12/26 10:31:42;;;;;;;3.63;1.30;;;20.00;24.70;;;;;;5034066;28;20473;-84
2023/12/26 10:34:16;;;;;;;2.53;1.40;;;20.10;25.00;;;;;;5034371;28;20472;-84
2023/12/26 10:36:44;;;;;;;2.50;0.97;;;20.10;23.70;;;;;;5034428;28;20459;-83
2023/12/26 10:39:12;;;;;;;4.37;1.77;;;19.90;23.80;;;;;;5034089;28;20954;-83
2023/12/26 10:41:45;;;;;;;2.30;0.93;;;19.60;23.80;;;;;;5034683;28;20444;-83
2023/12/26 10:44:14;;;;;;;3.17;1.60;;;19.40;23.90;;;;;;5034124;28;20483;-83
2023/12/26 10:46:42;;;;;;;3.43;1.40;;;19.20;24.50;;;;;;5033969;28;20590;-83
2023/12/26 10:49:11;;;;;;;4.73;1.30;;;19.10;24.50;;;;;;5034017;28;20484;-84
2023/12/26 10:51:43;;;;;;;2.60;1.20;;;18.90;24.20;;;;;;5034280;28;20473;-83
2023/12/26 10:54:19;;;;;;;2.80;1.10;;;18.70;24.20;;;;;;5034356;28;20784;-83
2023/12/26 10:56:49;;;;;;;2.37;1.07;;;18.50;24.70;;;;;;5034471;28;20531;-83
2023/12/26 10:59:17;;;;;;;2.63;1.20;;;18.10;24.90;;;;;;5034213;28;20445;-83
2023/12/26 11:01:44;;;;;;;2.43;0.83;;;17.80;25.40;;;;;;5033874;28;20499;-83
2023/12/26 11:04:18;;;;;;;2.80;1.30;;;17.50;25.70;;;;;;5033847;28;20433;-82
2023/12/26 11:06:44;;;;;;;3.10;1.30;;;17.30;25.80;;;;;;5034220;28;20463;-82
2023/12/26 11:09:11;;;;;;;3.07;1.20;;;17.10;26.10;;;;;;5034064;28;20857;-83
2023/12/26 11:11:39;;;;;;;3.63;1.27;;;16.80;26.70;;;;;;5033966;28;20471;-83
2023/12/26 11:14:07;;;;;;;3.40;1.90;;;16.60;27.00;;;;;;5033604;28;20942;-83
2023/12/26 11:16:35;;;;;;;3.17;1.37;;;16.30;27.20;;;;;;5033899;28;20777;-82
2023/12/26 11:19:03;;;;;;;2.67;1.70;;;16.00;27.70;;;;;;5033555;28;20989;-82
2023/12/26 11:21:30;;;;;;;2.60;1.10;;;15.80;28.10;;;;;;5033422;28;20474;-82
2023/12/26 11:23:58;;;;;;;2.70;1.57;;;15.50;28.40;;;;;;5033833;28;20430;-82
2023/12/26 11:26:30;;;;;;;3.67;1.50;;;15.20;28.80;;;;;;5033684;28;20492;-82
2023/12/26 11:28:57;;;;;;;3.30;1.70;;;15.00;28.80;;;;;;5033756;28;20434;-82
2023/12/26 11:31:24;;;;;;;3.80;1.63;;;14.80;29.00;;;;;;5033469;28;20932;-82
2023/12/26 11:33:51;;;;;;;3.30;1.37;;;14.60;29.50;;;;;;5033444;28;20438;-82
2023/12/26 11:36:17;;;;;;;9.50;3.63;;;14.40;29.60;;;;;;5033624;28;20924;-82
2023/12/26 11:38:43;;;;;;;3.87;1.60;;;14.30;29.90;;;;;;5033196;28;21030;-82
2023/12/26 11:41:12;;;;;;;4.33;1.60;;;14.10;30.20;;;;;;5033212;28;20532;-82
2023/12/26 11:43:39;;;;;;;3.43;1.60;;;13.90;30.60;;;;;;5033501;28;20512;-82
2023/12/26 11:46:05;;;;;;;3.10;1.20;;;13.90;30.60;;;;;;5032945;28;20444;-81
2023/12/26 11:48:34;;;;;;;3.80;1.83;;;13.80;30.50;;;;;;5033584;28;20433;-81
2023/12/26 11:51:00;;;;;;;2.20;1.20;;;13.70;31.30;;;;;;5033599;28;20484;-82
2023/12/26 11:53:28;;;;;;;2.50;1.67;;;13.60;32.00;;;;;;5033091;28;20442;-82
2023/12/26 11:55:57;;;;;;;2.50;1.17;;;13.50;32.00;;;;;;5033306;28;20446;-82
2023/12/26 11:58:23;;;;;;;2.30;1.50;;;13.40;32.30;;;;;;5033194;28;20557;-82
2023/12/26 12:00:49;;;;;;;3.47;1.70;;;13.40;32.60;;;;;;5033332;28;20438;-83
2023/12/26 12:03:16;;;;;;;2.20;1.23;;;13.30;33.00;;;;;;5033275;28;20453;-83
2023/12/26 12:05:43;;;;;;;3.27;1.30;;;13.30;33.00;;;;;;5033001;28;20521;-82
2023/12/26 12:08:12;;;;;;;2.93;1.17;;;13.30;33.20;;;;;;5033391;28;20446;-82
2023/12/26 12:11:04;;;;;;;2.17;1.10;;;13.30;33.20;;;;;;5033176;28;20439;-83
2023/12/26 12:13:30;;;;;;;2.50;1.40;;;13.30;33.50;;;;;;5032699;28;20434;-82
2023/12/26 12:15:56;;;;;;;3.50;1.70;;;13.20;33.00;;;;;;5032840;28;20480;-82
2023/12/26 12:18:23;;;;;;;2.40;1.50;;;13.20;33.20;;;;;;5033109;28;20477;-82
2023/12/26 12:20:51;;;;;;;2.73;1.50;;;13.20;33.30;;;;;;5033172;28;20437;-82
2023/12/26 12:23:18;;;;;;;2.87;1.30;;;13.10;33.50;;;;;;5033280;28;20445;-83
2023/12/26 12:25:45;;;;;;;3.10;1.13;;;13.10;34.20;;;;;;5033194;28;20458;-83
2023/12/26 12:28:11;;;;;;;3.13;1.40;;;13.20;33.50;;;;;;5033110;28;20442;-82
2023/12/26 12:30:37;;;;;;;5.90;1.60;;;13.20;33.30;;;;;;5032962;28;20457;-82
2023/12/26 12:33:19;;;;;;;4.37;1.50;;;13.30;33.00;;;;;;5032686;28;20438;-82
2023/12/26 12:35:47;;;;;;;3.43;1.63;;;13.30;33.20;;;;;;5033137;28;21031;-83
2023/12/26 12:38:16;;;;;;;4.07;1.57;;;13.20;33.30;;;;;;5032938;28;20465;-83
2023/12/26 12:40:46;;;;;;;3.00;2.30;;;13.20;33.60;;;;;;5033125;28;20470;-82
2023/12/26 12:43:12;;;;;;;3.77;1.87;;;13.20;33.80;;;;;;5032949;28;20515;-82
2023/12/26 12:45:40;;;;;;;4.13;1.53;;;13.20;34.00;;;;;;5032868;28;20439;-82
2023/12/26 12:48:06;;;;;;;2.67;1.30;;;13.20;34.00;;;;;;5032376;28;20505;-82
2023/12/26 12:50:32;;;;;;;3.67;1.60;;;13.20;34.20;;;;;;5032930;28;20521;-82
2023/12/26 12:52:59;;;;;;;5.07;1.50;;;13.20;34.20;;;;;;5034786;28;20491;-82
2023/12/26 12:55:27;;;;;;;2.77;1.60;;;13.30;33.80;;;;;;5036659;28;20496;-82